createdAt,value
2018-06-23T00:01:36.000Z,42.973
2018-06-23T00:11:36.000Z,43.004
2018-06-23T00:21:36.000Z,43.121
2018-06-23T00:31:36.000Z,43.206
2018-06-23T00:41:36.000Z,43.235
2018-06-23T00:51:36.000Z,43.32
2018-06-23T01:01:36.000Z,43.373
2018-06-23T01:11:36.000Z,43.457
2018-06-23T01:21:36.000Z,43.499
2018-06-23T01:31:36.000Z,43.52
2018-06-23T01:41:37.000Z,43.572
2018-06-23T01:51:36.000Z,43.624
2018-06-23T02:01:36.000Z,43.72
2018-06-23T02:11:36.000Z,43.783
2018-06-23T02:21:36.000Z,43.782
2018-06-23T02:31:36.000Z,43.898
2018-06-23T02:41:36.000Z,43.983
2018-06-23T02:51:36.000Z,44.004
2018-06-23T03:01:36.000Z,44.077
2018-06-23T03:11:36.000Z,44.119
2018-06-23T03:21:36.000Z,44.17
2018-06-23T03:31:36.000Z,44.302
2018-06-23T03:41:36.000Z,44.552
2018-06-23T03:51:36.000Z,44.55
2018-06-23T04:01:36.000Z,44.571
2018-06-23T04:11:36.000Z,44.58
2018-06-23T04:21:36.000Z,44.599
2018-06-23T04:31:36.000Z,44.706
2018-06-23T04:41:37.000Z,44.662
2018-06-23T04:51:36.000Z,44.725
2018-06-23T05:01:36.000Z,44.724
2018-06-23T05:11:36.000Z,44.68
2018-06-23T05:21:36.000Z,44.754
2018-06-23T05:31:36.000Z,44.786
2018-06-23T05:41:36.000Z,44.787
2018-06-23T05:51:36.000Z,44.84
2018-06-23T06:01:36.000Z,44.706
2018-06-23T06:11:36.000Z,44.675
2018-06-23T06:21:36.000Z,44.638
2018-06-23T06:31:36.000Z,44.332
2018-06-23T06:41:36.000Z,44.377
2018-06-23T06:51:36.000Z,44.593
2018-06-23T07:01:36.000Z,44.727
2018-06-23T07:11:36.000Z,44.833
2018-06-23T07:21:36.000Z,44.825
2018-06-23T07:31:36.000Z,44.606
2018-06-23T07:41:36.000Z,44.566
2018-06-23T07:51:36.000Z,43.967
2018-06-23T08:01:37.000Z,44.321
2018-06-23T08:11:37.000Z,44.08
2018-06-23T08:21:37.000Z,43.375
2018-06-23T08:31:37.000Z,43.331
2018-06-23T08:41:37.000Z,43.257
2018-06-23T08:51:37.000Z,43.668
2018-06-23T09:01:37.000Z,43.272
2018-06-23T09:11:37.000Z,42.823
2018-06-23T09:21:37.000Z,42.587
2018-06-23T09:31:37.000Z,42.649
2018-06-23T09:41:37.000Z,43.04
2018-06-23T09:51:37.000Z,42.636
2018-06-23T10:01:37.000Z,41.428
2018-06-23T10:11:37.000Z,41.132
2018-06-23T10:21:37.000Z,39.617
2018-06-23T10:31:37.000Z,39.608
2018-06-23T10:41:37.000Z,39.14
2018-06-23T10:51:37.000Z,39.244
2018-06-23T11:01:37.000Z,38.467
2018-06-23T11:11:37.000Z,39.392
2018-06-23T11:21:37.000Z,38.958
2018-06-23T11:31:37.000Z,39.708
2018-06-23T11:41:37.000Z,39.131
2018-06-23T11:51:37.000Z,39.031
2018-06-23T12:01:37.000Z,38.911
2018-06-23T12:11:37.000Z,38.262
2018-06-23T12:21:37.000Z,37.795
2018-06-23T12:31:37.000Z,37.754
2018-06-23T12:41:37.000Z,37.545
2018-06-23T12:51:37.000Z,38.14
2018-06-23T13:01:37.000Z,37.12
2018-06-23T13:11:37.000Z,38.022
2018-06-23T13:21:37.000Z,37.723
2018-06-23T13:31:37.000Z,37.567
2018-06-23T13:41:37.000Z,38.01
2018-06-23T13:51:37.000Z,38.195
2018-06-23T14:01:37.000Z,37.878
2018-06-23T14:11:37.000Z,37.515
2018-06-23T14:21:37.000Z,37.693
2018-06-23T14:31:37.000Z,37.674
2018-06-23T14:41:40.000Z,37.71
2018-06-23T14:51:37.000Z,37.645
2018-06-23T15:01:37.000Z,37.633
2018-06-23T15:11:38.000Z,38.001
2018-06-23T15:21:37.000Z,38.048
2018-06-23T15:31:37.000Z,38.305
2018-06-23T15:41:37.000Z,38.298
2018-06-23T15:51:37.000Z,38.75
2018-06-23T16:11:37.000Z,39.633
2018-06-23T16:21:38.000Z,39.719
2018-06-23T16:31:38.000Z,39.923
2018-06-23T16:41:38.000Z,39.728
2018-06-23T16:51:38.000Z,39.707
2018-06-23T17:01:38.000Z,39.675
2018-06-23T17:11:38.000Z,39.481
2018-06-23T17:21:38.000Z,39.613
2018-06-23T17:31:38.000Z,39.733
2018-06-23T17:41:38.000Z,39.872
2018-06-23T17:51:38.000Z,39.979
2018-06-23T18:01:38.000Z,40.068
2018-06-23T18:11:38.000Z,40.285
2018-06-23T18:21:38.000Z,40.379
2018-06-23T18:31:38.000Z,40.614
2018-06-23T18:41:38.000Z,40.665
2018-06-23T18:51:38.000Z,40.684
2018-06-23T19:01:38.000Z,40.791
2018-06-23T19:11:38.000Z,40.929
2018-06-23T19:21:38.000Z,41.07
2018-06-23T19:31:38.000Z,41.185
2018-06-23T19:41:42.000Z,41.326
2018-06-23T19:51:38.000Z,41.508
2018-06-23T20:01:38.000Z,41.646
2018-06-23T20:11:38.000Z,41.666
2018-06-23T20:21:38.000Z,41.684
2018-06-23T20:31:38.000Z,41.712
2018-06-23T20:41:38.000Z,41.733
2018-06-23T20:51:38.000Z,41.838
2018-06-23T21:01:38.000Z,41.933
2018-06-23T21:11:38.000Z,42.331
2018-06-23T21:21:38.000Z,42.56
2018-06-23T21:31:40.000Z,42.748
2018-06-23T21:41:38.000Z,42.896
2018-06-23T21:51:38.000Z,42.692
2018-06-23T22:01:38.000Z,42.512
2018-06-23T22:11:38.000Z,42.601
2018-06-23T22:21:38.000Z,42.675
2018-06-23T22:31:38.000Z,42.709
2018-06-23T22:41:38.000Z,42.967
2018-06-23T22:51:38.000Z,43.104
2018-06-23T23:01:42.000Z,43.21
2018-06-23T23:11:38.000Z,43.217
2018-06-23T23:21:38.000Z,43.236
2018-06-23T23:31:38.000Z,43.2
2018-06-23T23:41:38.000Z,43.24
2018-06-23T23:51:38.000Z,43.248
